Hubbard, IA (50122)

1:30 PM CDT on May 05, 2015 (GMT -0500)
Iowa Falls Municipal | | Change Station
CLOSE
Current Station
Airport
Location: Iowa Falls,
Elevation: 1138 ft
Nearby Weather Stations

Elev 1138 ft 42.47 °N, 93.27 °W | Updated 15 minutes ago

Overcast
Overcast
57 °F
Feels Like 57 °F
N
14
Wind Variable Wind from East

Today
High -- | Low -- °F
--% Chance of Precip.
Yesterday
High -- | Low -- °F
Precip. -- in
6:03 AM 8:16 PM
Full, 97% visible
Pressure 30.16 in
Visibility 0.8 miles
Clouds Overcast 200 ft
Dew Point 56 °F
Humidity 96%
Rainfall 0.11 in
Snow Depth Not available.
UV 3 out of 12
Pollen 5.00 out of 12
Air Quality Not available.
Flu Activity Local Activity
METAR KIFA 051815Z AUTO 08012KT 3/4SM BR OVC002 14/13 A3016 RMK AO2 T01400133

More Conditions Fewer Conditions

Pressure 30.16 in
Visibility 0.8 miles
Clouds Overcast 200 ft
Dew Point 56 °F
Humidity 96%
Rainfall 0.11 in
Snow Depth Not available.
UV 3 out of 12
Pollen 5.00 out of 12
Air Quality Not available.
Flu Activity Local Activity
METAR KIFA 051815Z AUTO 08012KT 3/4SM BR OVC002 14/13 A3016 RMK AO2 T01400133

More Conditions Fewer Conditions

10-Day Weather Forecast

Almanac

Astronomy

May. 05, 2015 Rise Set
Actual Time
Civil Twilight
Nautical Twilight
Astronomical Twilight
Moon
Length of Visible Light
Length of Day
Tomorrow will be .
, % of the Moon is Illuminated

Today's Extremes

State Highs State Lows

Community

WunderPhotos

Upload Photos

1,818,952 photos uploaded!

WunderBlogs® & News

Nearby

Air Quality

  Air Quality AQ Index Pollutant
Not available.

Snow Depth

Station Depth Elevation

Earthquake Activity

City Distance Mag. Time & Date
Minimum magnitude displayed is 2.5.

Coastal Water Temperatures

Place Temperature

Stations

Nearby Weather Stations

Station Location Temp. Windchill Dew Point Humidity Wind Precip. Elev Updated Type